sensor_id;sensor_type;location;lat;lon;timestamp;pressure;altitude;pressure_sealevel;temperature;humidity
63006;BME280;53704;52.532;6.426;2022-10-01T00:00:22;100355.47;;;9.96;100.00
63006;BME280;53704;52.532;6.426;2022-10-01T00:02:48;100353.94;;;10.10;100.00
63006;BME280;53704;52.532;6.426;2022-10-01T00:05:14;100339.50;;;9.94;100.00
63006;BME280;53704;52.532;6.426;2022-10-01T00:07:41;100338.00;;;10.00;100.00
63006;BME280;53704;52.532;6.426;2022-10-01T00:10:07;100321.56;;;9.87;100.00
63006;BME280;53704;52.532;6.426;2022-10-01T00:12:34;100319.88;;;9.86;100.00
63006;BME280;53704;52.532;6.426;2022-10-01T00:14:59;100311.13;;;9.92;100.00
63006;BME280;53704;52.532;6.426;2022-10-01T00:17:24;100310.81;;;9.87;100.00
63006;BME280;53704;52.532;6.426;2022-10-01T00:19:50;100302.06;;;9.85;100.00
63006;BME280;53704;52.532;6.426;2022-10-01T00:22:16;100286.28;;;9.82;100.00
63006;BME280;53704;52.532;6.426;2022-10-01T00:24:43;100275.50;;;9.82;100.00
63006;BME280;53704;52.532;6.426;2022-10-01T00:27:10;100270.00;;;9.75;100.00
63006;BME280;53704;52.532;6.426;2022-10-01T00:29:36;100263.09;;;9.72;100.00
63006;BME280;53704;52.532;6.426;2022-10-01T00:32:02;100251.34;;;9.73;100.00
63006;BME280;53704;52.532;6.426;2022-10-01T00:34:27;100247.69;;;9.66;100.00
63006;BME280;53704;52.532;6.426;2022-10-01T00:36:53;100246.50;;;9.69;100.00
63006;BME280;53704;52.532;6.426;2022-10-01T00:39:18;100243.94;;;9.75;100.00
63006;BME280;53704;52.532;6.426;2022-10-01T00:41:44;100237.78;;;9.67;100.00
63006;BME280;53704;52.532;6.426;2022-10-01T00:44:29;100235.91;;;9.67;100.00
63006;BME280;53704;52.532;6.426;2022-10-01T00:47:02;100224.19;;;9.60;100.00
63006;BME280;53704;52.532;6.426;2022-10-01T00:49:30;100221.66;;;9.67;100.00
63006;BME280;53704;52.532;6.426;2022-10-01T00:52:02;100214.28;;;9.60;100.00
63006;BME280;53704;52.532;6.426;2022-10-01T00:54:37;100201.63;;;9.69;100.00
63006;BME280;53704;52.532;6.426;2022-10-01T00:57:05;100194.94;;;9.65;100.00
63006;BME280;53704;52.532;6.426;2022-10-01T00:59:31;100183.72;;;9.62;100.00
63006;BME280;53704;52.532;6.426;2022-10-01T01:01:58;100180.69;;;9.56;100.00
63006;BME280;53704;52.532;6.426;2022-10-01T01:04:23;100174.34;;;9.49;100.00
63006;BME280;53704;52.532;6.426;2022-10-01T01:06:54;100165.06;;;9.60;100.00
63006;BME280;53704;52.532;6.426;2022-10-01T01:09:25;100163.03;;;9.62;100.00
63006;BME280;53704;52.532;6.426;2022-10-01T01:12:00;100162.72;;;9.57;100.00
63006;BME280;53704;52.532;6.426;2022-10-01T01:14:59;100143.22;;;9.55;100.00
63006;BME280;53704;52.532;6.426;2022-10-01T01:22:35;100117.56;;;9.52;100.00
63006;BME280;53704;52.532;6.426;2022-10-01T01:25:08;100100.28;;;9.47;100.00
63006;BME280;53704;52.532;6.426;2022-10-01T01:27:41;100093.78;;;9.41;100.00
63006;BME280;53704;52.532;6.426;2022-10-01T01:30:10;100090.19;;;9.49;100.00
63006;BME280;53704;52.532;6.426;2022-10-01T01:33:01;100083.13;;;9.56;100.00
63006;BME280;53704;52.532;6.426;2022-10-01T01:35:45;100070.72;;;9.47;100.00
63006;BME280;53704;52.532;6.426;2022-10-01T01:38:16;100069.03;;;9.54;100.00
63006;BME280;53704;52.532;6.426;2022-10-01T01:40:46;100064.69;;;9.45;100.00
63006;BME280;53704;52.532;6.426;2022-10-01T01:43:17;100050.63;;;9.43;100.00
63006;BME280;53704;52.532;6.426;2022-10-01T01:45:45;100073.06;;;9.50;100.00
63006;BME280;53704;52.532;6.426;2022-10-01T01:48:12;100069.06;;;9.46;100.00
63006;BME280;53704;52.532;6.426;2022-10-01T01:51:12;100055.66;;;9.46;100.00
63006;BME280;53704;52.532;6.426;2022-10-01T01:53:39;100062.66;;;9.47;100.00
63006;BME280;53704;52.532;6.426;2022-10-01T01:56:06;100068.53;;;9.50;100.00
63006;BME280;53704;52.532;6.426;2022-10-01T01:58:33;100060.28;;;9.52;100.00
63006;BME280;53704;52.532;6.426;2022-10-01T02:01:00;100053.59;;;9.48;100.00
63006;BME280;53704;52.532;6.426;2022-10-01T02:03:27;100046.25;;;9.41;100.00
63006;BME280;53704;52.532;6.426;2022-10-01T02:06:22;100030.94;;;9.42;100.00
63006;BME280;53704;52.532;6.426;2022-10-01T02:09:00;100037.66;;;9.46;100.00
63006;BME280;53704;52.532;6.426;2022-10-01T02:11:30;100052.91;;;9.54;100.00
63006;BME280;53704;52.532;6.426;2022-10-01T02:21:58;99977.22;;;9.42;100.00
63006;BME280;53704;52.532;6.426;2022-10-01T02:27:35;99959.28;;;9.43;100.00
63006;BME280;53704;52.532;6.426;2022-10-01T02:30:01;99921.84;;;9.41;100.00
63006;BME280;53704;52.532;6.426;2022-10-01T02:32:29;99927.97;;;9.50;100.00
63006;BME280;53704;52.532;6.426;2022-10-01T02:34:56;99950.88;;;9.46;100.00
63006;BME280;53704;52.532;6.426;2022-10-01T02:37:24;99960.94;;;9.44;100.00
63006;BME280;53704;52.532;6.426;2022-10-01T02:39:51;99956.59;;;9.43;100.00
63006;BME280;53704;52.532;6.426;2022-10-01T02:42:21;99960.56;;;9.47;100.00
63006;BME280;53704;52.532;6.426;2022-10-01T02:44:50;99959.28;;;9.43;100.00
63006;BME280;53704;52.532;6.426;2022-10-01T02:47:20;99969.28;;;9.49;100.00
63006;BME280;53704;52.532;6.426;2022-10-01T02:49:48;99976.53;;;9.48;100.00
63006;BME280;53704;52.532;6.426;2022-10-01T02:54:56;99980.53;;;9.52;100.00
63006;BME280;53704;52.532;6.426;2022-10-01T02:57:23;99977.66;;;9.54;100.00
63006;BME280;53704;52.532;6.426;2022-10-01T03:00:00;99968.28;;;9.50;100.00
63006;BME280;53704;52.532;6.426;2022-10-01T03:02:28;99976.81;;;9.53;100.00
63006;BME280;53704;52.532;6.426;2022-10-01T03:04:54;99970.63;;;9.53;100.00
63006;BME280;53704;52.532;6.426;2022-10-01T03:07:23;99981.38;;;9.53;100.00
63006;BME280;53704;52.532;6.426;2022-10-01T03:09:49;99976.16;;;9.51;100.00
63006;BME280;53704;52.532;6.426;2022-10-01T03:12:15;99973.66;;;9.50;100.00
63006;BME280;53704;52.532;6.426;2022-10-01T03:14:42;99960.88;;;9.52;100.00
63006;BME280;53704;52.532;6.426;2022-10-01T03:17:08;99970.38;;;9.63;100.00
63006;BME280;53704;52.532;6.426;2022-10-01T03:19:35;99953.84;;;9.51;100.00
63006;BME280;53704;52.532;6.426;2022-10-01T03:22:03;99948.75;;;9.56;100.00
63006;BME280;53704;52.532;6.426;2022-10-01T03:24:29;99954.44;;;9.61;100.00
63006;BME280;53704;52.532;6.426;2022-10-01T03:26:55;99953.78;;;9.59;100.00
63006;BME280;53704;52.532;6.426;2022-10-01T03:29:21;99953.13;;;9.57;100.00
63006;BME280;53704;52.532;6.426;2022-10-01T03:31:46;99953.59;;;9.60;100.00
63006;BME280;53704;52.532;6.426;2022-10-01T03:34:12;99944.22;;;9.56;100.00
63006;BME280;53704;52.532;6.426;2022-10-01T03:36:37;99943.63;;;9.69;100.00
63006;BME280;53704;52.532;6.426;2022-10-01T03:39:03;99936.13;;;9.65;100.00
63006;BME280;53704;52.532;6.426;2022-10-01T03:41:28;99953.06;;;9.65;100.00
63006;BME280;53704;52.532;6.426;2022-10-01T03:43:54;99938.13;;;9.63;100.00
63006;BME280;53704;52.532;6.426;2022-10-01T03:46:19;99932.75;;;9.63;100.00
63006;BME280;53704;52.532;6.426;2022-10-01T03:48:45;99934.53;;;9.70;100.00
63006;BME280;53704;52.532;6.426;2022-10-01T03:51:11;99935.44;;;9.63;100.00
63006;BME280;53704;52.532;6.426;2022-10-01T03:53:36;99933.44;;;9.65;100.00
63006;BME280;53704;52.532;6.426;2022-10-01T03:56:03;99934.53;;;9.70;100.00
63006;BME280;53704;52.532;6.426;2022-10-01T03:58:29;99935.00;;;9.74;100.00
63006;BME280;53704;52.532;6.426;2022-10-01T04:00:54;99927.88;;;9.66;100.00
63006;BME280;53704;52.532;6.426;2022-10-01T04:03:20;99922.13;;;9.69;100.00
63006;BME280;53704;52.532;6.426;2022-10-01T04:05:47;99917.59;;;9.70;100.00
63006;BME280;53704;52.532;6.426;2022-10-01T04:08:13;99913.34;;;9.75;100.00
63006;BME280;53704;52.532;6.426;2022-10-01T04:10:39;99910.66;;;9.75;100.00
63006;BME280;53704;52.532;6.426;2022-10-01T04:13:05;99906.50;;;9.73;100.00
63006;BME280;53704;52.532;6.426;2022-10-01T04:15:31;99905.28;;;9.75;100.00
63006;BME280;53704;52.532;6.426;2022-10-01T04:17:57;99910.66;;;9.75;100.00
63006;BME280;53704;52.532;6.426;2022-10-01T04:20:23;99900.03;;;9.82;100.00
63006;BME280;53704;52.532;6.426;2022-10-01T04:22:49;99898.81;;;9.85;100.00
63006;BME280;53704;52.532;6.426;2022-10-01T04:25:14;99901.84;;;9.82;100.00
63006;BME280;53704;52.532;6.426;2022-10-01T04:27:41;99900.50;;;9.86;100.00
63006;BME280;53704;52.532;6.426;2022-10-01T04:30:07;99908.09;;;9.82;100.00
63006;BME280;53704;52.532;6.426;2022-10-01T04:32:34;99908.75;;;9.84;100.00
63006;BME280;53704;52.532;6.426;2022-10-01T04:34:59;99906.88;;;9.85;100.00
63006;BME280;53704;52.532;6.426;2022-10-01T04:37:27;99915.53;;;9.95;100.00
63006;BME280;53704;52.532;6.426;2022-10-01T04:39:52;99922.00;;;9.86;100.00
63006;BME280;53704;52.532;6.426;2022-10-01T04:42:19;99919.06;;;9.95;100.00
63006;BME280;53704;52.532;6.426;2022-10-01T04:44:45;99921.91;;;9.94;100.00
63006;BME280;53704;52.532;6.426;2022-10-01T04:47:10;99925.06;;;9.98;100.00
63006;BME280;53704;52.532;6.426;2022-10-01T04:49:35;99932.03;;;10.07;100.00
63006;BME280;53704;52.532;6.426;2022-10-01T04:52:02;99936.13;;;10.03;100.00
63006;BME280;53704;52.532;6.426;2022-10-01T04:54:27;99936.13;;;10.03;100.00
63006;BME280;53704;52.532;6.426;2022-10-01T04:56:53;99931.75;;;10.02;100.00
63006;BME280;53704;52.532;6.426;2022-10-01T04:59:18;99937.97;;;10.02;100.00
63006;BME280;53704;52.532;6.426;2022-10-01T05:01:44;99937.34;;;10.15;100.00
63006;BME280;53704;52.532;6.426;2022-10-01T05:04:09;99927.72;;;10.06;100.00
63006;BME280;53704;52.532;6.426;2022-10-01T05:06:35;99939.94;;;10.08;100.00
63006;BME280;53704;52.532;6.426;2022-10-01T05:09:01;99944.75;;;10.13;100.00
63006;BME280;53704;52.532;6.426;2022-10-01T05:11:26;99929.28;;;10.15;100.00
63006;BME280;53704;52.532;6.426;2022-10-01T05:13:52;99945.59;;;10.13;100.00
63006;BME280;53704;52.532;6.426;2022-10-01T05:16:17;99951.09;;;10.20;100.00
63006;BME280;53704;52.532;6.426;2022-10-01T05:18:42;99950.59;;;10.17;100.00
63006;BME280;53704;52.532;6.426;2022-10-01T05:21:08;99950.25;;;10.20;100.00
63006;BME280;53704;52.532;6.426;2022-10-01T05:23:40;99959.00;;;10.22;100.00
63006;BME280;53704;52.532;6.426;2022-10-01T05:26:05;99962.31;;;10.24;100.00
63006;BME280;53704;52.532;6.426;2022-10-01T05:28:32;99962.09;;;10.34;100.00
63006;BME280;53704;52.532;6.426;2022-10-01T05:30:59;99962.72;;;10.36;100.00
63006;BME280;53704;52.532;6.426;2022-10-01T05:33:28;99962.19;;;10.40;100.00
63006;BME280;53704;52.532;6.426;2022-10-01T05:35:58;99960.41;;;10.32;100.00
63006;BME280;53704;52.532;6.426;2022-10-01T05:38:23;99957.16;;;10.37;100.00
63006;BME280;53704;52.532;6.426;2022-10-01T05:40:50;99962.72;;;10.36;100.00
63006;BME280;53704;52.532;6.426;2022-10-01T05:43:15;99960.53;;;10.39;100.00
63006;BME280;53704;52.532;6.426;2022-10-01T05:45:43;99970.25;;;10.40;100.00
63006;BME280;53704;52.532;6.426;2022-10-01T05:48:09;99969.69;;;10.45;100.00
63006;BME280;53704;52.532;6.426;2022-10-01T05:50:39;99975.56;;;10.48;100.00
63006;BME280;53704;52.532;6.426;2022-10-01T05:53:06;99977.22;;;10.49;100.00
63006;BME280;53704;52.532;6.426;2022-10-01T05:55:32;99993.38;;;10.49;100.00
63006;BME280;53704;52.532;6.426;2022-10-01T05:58:06;99990.13;;;10.54;100.00
63006;BME280;53704;52.532;6.426;2022-10-01T06:00:32;100001.72;;;10.55;100.00
63006;BME280;53704;52.532;6.426;2022-10-01T06:03:00;100001.66;;;10.63;100.00
63006;BME280;53704;52.532;6.426;2022-10-01T06:05:27;100008.88;;;10.62;100.00
63006;BME280;53704;52.532;6.426;2022-10-01T06:07:53;100018.63;;;10.78;100.00
63006;BME280;53704;52.532;6.426;2022-10-01T06:10:20;100000.09;;;10.83;100.00
63006;BME280;53704;52.532;6.426;2022-10-01T06:12:46;100002.28;;;10.80;100.00
63006;BME280;53704;52.532;6.426;2022-10-01T06:15:13;100005.66;;;10.82;100.00
63006;BME280;53704;52.532;6.426;2022-10-01T06:17:39;100007.88;;;10.78;100.00
63006;BME280;53704;52.532;6.426;2022-10-01T06:20:11;100004.63;;;10.83;100.00
63006;BME280;53704;52.532;6.426;2022-10-01T06:22:38;100009.34;;;10.96;100.00
63006;BME280;53704;52.532;6.426;2022-10-01T06:25:05;100009.34;;;10.96;100.00
63006;BME280;53704;52.532;6.426;2022-10-01T06:27:31;100010.56;;;10.93;100.00
63006;BME280;53704;52.532;6.426;2022-10-01T06:29:56;100011.41;;;10.94;100.00
63006;BME280;53704;52.532;6.426;2022-10-01T06:32:21;100021.81;;;10.97;100.00
63006;BME280;53704;52.532;6.426;2022-10-01T06:34:47;100012.44;;;10.93;100.00
63006;BME280;53704;52.532;6.426;2022-10-01T06:37:12;100021.53;;;10.92;100.00
63006;BME280;53704;52.532;6.426;2022-10-01T06:39:38;100020.13;;;10.96;100.00
63006;BME280;53704;52.532;6.426;2022-10-01T06:42:03;100025.13;;;10.99;100.00
63006;BME280;53704;52.532;6.426;2022-10-01T06:44:28;100023.28;;;10.99;100.00
63006;BME280;53704;52.532;6.426;2022-10-01T06:46:54;100019.56;;;11.15;100.00
63006;BME280;53704;52.532;6.426;2022-10-01T06:49:19;100025.25;;;11.06;100.00
63006;BME280;53704;52.532;6.426;2022-10-01T06:51:46;100025.78;;;11.16;100.00
63006;BME280;53704;52.532;6.426;2022-10-01T06:54:30;100026.41;;;11.33;100.00
63006;BME280;53704;52.532;6.426;2022-10-01T06:56:56;100029.22;;;11.25;100.00
63006;BME280;53704;52.532;6.426;2022-10-01T06:59:21;100036.19;;;11.19;100.00
63006;BME280;53704;52.532;6.426;2022-10-01T07:01:50;100036.06;;;11.27;100.00
63006;BME280;53704;52.532;6.426;2022-10-01T07:04:18;100042.03;;;11.22;100.00
63006;BME280;53704;52.532;6.426;2022-10-01T07:06:44;100054.19;;;11.33;100.00
63006;BME280;53704;52.532;6.426;2022-10-01T07:09:09;100043.78;;;11.45;100.00
63006;BME280;53704;52.532;6.426;2022-10-01T07:11:37;100047.50;;;11.44;100.00
63006;BME280;53704;52.532;6.426;2022-10-01T07:14:07;100062.09;;;11.50;100.00
63006;BME280;53704;52.532;6.426;2022-10-01T07:16:33;100060.13;;;11.44;100.00
63006;BME280;53704;52.532;6.426;2022-10-01T07:18:58;100068.41;;;11.42;100.00
63006;BME280;53704;52.532;6.426;2022-10-01T07:21:24;100074.63;;;11.43;100.00
63006;BME280;53704;52.532;6.426;2022-10-01T07:23:50;100065.16;;;11.47;100.00
63006;BME280;53704;52.532;6.426;2022-10-01T07:26:15;100068.13;;;11.52;100.00
63006;BME280;53704;52.532;6.426;2022-10-01T07:28:41;100067.28;;;11.51;100.00
63006;BME280;53704;52.532;6.426;2022-10-01T07:31:07;100066.78;;;11.63;100.00
63006;BME280;53704;52.532;6.426;2022-10-01T07:33:37;100069.00;;;11.59;100.00
63006;BME280;53704;52.532;6.426;2022-10-01T07:36:04;100067.25;;;11.66;100.00
63006;BME280;53704;52.532;6.426;2022-10-01T07:38:30;100084.06;;;11.68;100.00
63006;BME280;53704;52.532;6.426;2022-10-01T07:40:57;100075.94;;;11.83;100.00
63006;BME280;53704;52.532;6.426;2022-10-01T07:43:23;100079.19;;;11.93;100.00
63006;BME280;53704;52.532;6.426;2022-10-01T07:45:49;100077.78;;;11.83;100.00
63006;BME280;53704;52.532;6.426;2022-10-01T07:48:16;100088.59;;;11.98;100.00
63006;BME280;53704;52.532;6.426;2022-10-01T07:50:43;100089.28;;;12.06;100.00
63006;BME280;53704;52.532;6.426;2022-10-01T07:53:12;100095.38;;;11.93;100.00
63006;BME280;53704;52.532;6.426;2022-10-01T07:55:38;100096.66;;;11.98;100.00
63006;BME280;53704;52.532;6.426;2022-10-01T07:58:03;100099.38;;;11.98;100.00
63006;BME280;53704;52.532;6.426;2022-10-01T08:00:30;100102.47;;;12.16;100.00
63006;BME280;53704;52.532;6.426;2022-10-01T08:02:57;100105.63;;;12.20;100.00
63006;BME280;53704;52.532;6.426;2022-10-01T08:05:28;100110.00;;;12.21;100.00
63006;BME280;53704;52.532;6.426;2022-10-01T08:08:02;100101.25;;;12.40;100.00
63006;BME280;53704;52.532;6.426;2022-10-01T08:10:28;100103.75;;;12.42;100.00
63006;BME280;53704;52.532;6.426;2022-10-01T08:13:04;100102.59;;;12.51;100.00
63006;BME280;53704;52.532;6.426;2022-10-01T08:15:32;100114.09;;;12.60;100.00
63006;BME280;53704;52.532;6.426;2022-10-01T08:18:02;100111.44;;;12.66;100.00
63006;BME280;53704;52.532;6.426;2022-10-01T08:20:28;100108.31;;;12.91;100.00
63006;BME280;53704;52.532;6.426;2022-10-01T08:22:53;100108.16;;;12.99;100.00
63006;BME280;53704;52.532;6.426;2022-10-01T08:25:19;100119.22;;;13.05;100.00
63006;BME280;53704;52.532;6.426;2022-10-01T08:27:44;100116.91;;;13.01;100.00
63006;BME280;53704;52.532;6.426;2022-10-01T08:30:10;100124.63;;;13.05;100.00
63006;BME280;53704;52.532;6.426;2022-10-01T08:32:35;100128.63;;;13.15;100.00
63006;BME280;53704;52.532;6.426;2022-10-01T08:35:00;100135.59;;;13.31;100.00
63006;BME280;53704;52.532;6.426;2022-10-01T08:37:27;100142.59;;;13.47;100.00
63006;BME280;53704;52.532;6.426;2022-10-01T08:39:54;100139.53;;;13.29;100.00
63006;BME280;53704;52.532;6.426;2022-10-01T08:42:32;100140.75;;;13.26;100.00
63006;BME280;53704;52.532;6.426;2022-10-01T08:45:05;100132.44;;;13.28;100.00
63006;BME280;53704;52.532;6.426;2022-10-01T08:47:37;100144.19;;;13.35;100.00
63006;BME280;53704;52.532;6.426;2022-10-01T08:50:13;100149.19;;;13.38;100.00
63006;BME280;53704;52.532;6.426;2022-10-01T08:52:56;100150.91;;;13.46;100.00
63006;BME280;53704;52.532;6.426;2022-10-01T08:55:26;100153.59;;;13.46;100.00
63006;BME280;53704;52.532;6.426;2022-10-01T08:58:02;100151.59;;;13.61;100.00
63006;BME280;53704;52.532;6.426;2022-10-01T09:00:30;100158.53;;;13.77;100.00
63006;BME280;53704;52.532;6.426;2022-10-01T09:02:59;100161.91;;;13.86;100.00
63006;BME280;53704;52.532;6.426;2022-10-01T09:05:50;100163.22;;;13.97;100.00
63006;BME280;53704;52.532;6.426;2022-10-01T09:13:48;100161.59;;;14.09;100.00
63006;BME280;53704;52.532;6.426;2022-10-01T09:22:00;100173.25;;;14.09;100.00
63006;BME280;53704;52.532;6.426;2022-10-01T09:24:44;100168.72;;;14.37;100.00
63006;BME280;53704;52.532;6.426;2022-10-01T09:27:17;100164.22;;;14.64;99.74
63006;BME280;53704;52.532;6.426;2022-10-01T09:29:48;100170.03;;;14.61;100.00
63006;BME280;53704;52.532;6.426;2022-10-01T09:32:18;100157.59;;;14.87;98.07
63006;BME280;53704;52.532;6.426;2022-10-01T09:34:45;100152.13;;;14.73;97.95
63006;BME280;53704;52.532;6.426;2022-10-01T09:37:40;100167.78;;;14.91;97.61
63006;BME280;53704;52.532;6.426;2022-10-01T09:40:43;100169.00;;;14.75;97.49
63006;BME280;53704;52.532;6.426;2022-10-01T09:43:10;100179.03;;;14.75;96.24
63006;BME280;53704;52.532;6.426;2022-10-01T09:45:37;100181.13;;;14.79;97.48
63006;BME280;53704;52.532;6.426;2022-10-01T09:50:48;100186.69;;;14.58;97.54
63006;BME280;53704;52.532;6.426;2022-10-01T09:53:21;100183.75;;;14.39;97.96
63006;BME280;53704;52.532;6.426;2022-10-01T09:55:54;100193.53;;;14.40;97.52
63006;BME280;53704;52.532;6.426;2022-10-01T09:58:23;100197.50;;;14.38;97.16
63006;BME280;53704;52.532;6.426;2022-10-01T10:00:52;100188.75;;;14.56;96.26
63006;BME280;53704;52.532;6.426;2022-10-01T10:03:27;100192.38;;;14.08;96.49
63006;BME280;53704;52.532;6.426;2022-10-01T10:05:55;100201.75;;;14.12;97.32
63006;BME280;53704;52.532;6.426;2022-10-01T10:08:28;100205.84;;;14.50;94.75
63006;BME280;53704;52.532;6.426;2022-10-01T10:11:00;100209.28;;;14.85;92.70
63006;BME280;53704;52.532;6.426;2022-10-01T10:16:00;100209.06;;;15.13;94.59
63006;BME280;53704;52.532;6.426;2022-10-01T10:18:36;100217.81;;;15.42;92.92
63006;BME280;53704;52.532;6.426;2022-10-01T10:21:12;100218.03;;;15.34;94.43
63006;BME280;53704;52.532;6.426;2022-10-01T10:23:50;100214.03;;;15.77;94.07
63006;BME280;53704;52.532;6.426;2022-10-01T10:26:38;100207.19;;;16.13;93.66
63006;BME280;53704;52.532;6.426;2022-10-01T10:29:07;100205.84;;;16.28;91.52
63006;BME280;53704;52.532;6.426;2022-10-01T10:31:48;100203.97;;;16.36;91.29
63006;BME280;53704;52.532;6.426;2022-10-01T10:34:37;100219.38;;;15.97;91.50
63006;BME280;53704;52.532;6.426;2022-10-01T10:37:10;100213.34;;;15.81;91.36
63006;BME280;53704;52.532;6.426;2022-10-01T10:39:39;100221.66;;;16.00;91.28
63006;BME280;53704;52.532;6.426;2022-10-01T10:42:05;100217.16;;;15.60;88.96
63006;BME280;53704;52.532;6.426;2022-10-01T10:44:35;100210.66;;;15.88;89.59
63006;BME280;53704;52.532;6.426;2022-10-01T10:47:06;100219.00;;;15.66;87.19
63006;BME280;53704;52.532;6.426;2022-10-01T10:49:41;100241.56;;;15.73;86.89
63006;BME280;53704;52.532;6.426;2022-10-01T10:52:18;100232.22;;;15.29;86.31
63006;BME280;53704;52.532;6.426;2022-10-01T10:54:46;100248.06;;;15.46;86.52
63006;BME280;53704;52.532;6.426;2022-10-01T10:57:28;100263.69;;;15.24;88.11
63006;BME280;53704;52.532;6.426;2022-10-01T10:59:59;100278.53;;;15.28;89.81
63006;BME280;53704;52.532;6.426;2022-10-01T11:02:30;100270.78;;;14.98;91.24
63006;BME280;53704;52.532;6.426;2022-10-01T11:05:01;100281.56;;;14.78;93.27
63006;BME280;53704;52.532;6.426;2022-10-01T11:07:28;100278.03;;;14.71;92.06
63006;BME280;53704;52.532;6.426;2022-10-01T11:10:17;100279.47;;;14.67;91.88
63006;BME280;53704;52.532;6.426;2022-10-01T11:27:25;100308.75;;;14.50;95.09
63006;BME280;53704;52.532;6.426;2022-10-01T11:30:14;100340.00;;;14.45;93.89
63006;BME280;53704;52.532;6.426;2022-10-01T11:38:21;100369.66;;;13.90;89.58
63006;BME280;53704;52.532;6.426;2022-10-01T11:40:54;100370.88;;;13.88;88.25
63006;BME280;53704;52.532;6.426;2022-10-01T11:46:02;100380.84;;;13.37;92.29
63006;BME280;53704;52.532;6.426;2022-10-01T11:48:36;100383.75;;;13.36;93.89
63006;BME280;53704;52.532;6.426;2022-10-01T11:51:11;100381.97;;;13.28;95.03
63006;BME280;53704;52.532;6.426;2022-10-01T11:54:05;100384.59;;;13.36;95.39
63006;BME280;53704;52.532;6.426;2022-10-01T11:56:38;100382.38;;;13.47;93.18
63006;BME280;53704;52.532;6.426;2022-10-01T11:59:32;100381.63;;;13.53;93.43
63006;BME280;53704;52.532;6.426;2022-10-01T12:02:37;100389.00;;;13.66;92.13
63006;BME280;53704;52.532;6.426;2022-10-01T12:05:11;100390.09;;;13.71;91.75
63006;BME280;53704;52.532;6.426;2022-10-01T12:07:53;100395.25;;;14.23;92.35
63006;BME280;53704;52.532;6.426;2022-10-01T12:13:03;100394.19;;;14.17;90.55
63006;BME280;53704;52.532;6.426;2022-10-01T12:15:42;100392.88;;;14.41;92.67
63006;BME280;53704;52.532;6.426;2022-10-01T12:18:17;100383.69;;;14.71;92.27
63006;BME280;53704;52.532;6.426;2022-10-01T12:20:58;100385.94;;;15.29;91.97
63006;BME280;53704;52.532;6.426;2022-10-01T12:23:30;100375.75;;;15.37;89.93
63006;BME280;53704;52.532;6.426;2022-10-01T12:26:02;100383.25;;;15.55;87.40
63006;BME280;53704;52.532;6.426;2022-10-01T12:28:51;100382.84;;;15.59;87.73
63006;BME280;53704;52.532;6.426;2022-10-01T12:31:39;100375.53;;;15.59;86.58
63006;BME280;53704;52.532;6.426;2022-10-01T12:34:48;100378.06;;;16.07;88.45
63006;BME280;53704;52.532;6.426;2022-10-01T12:44:15;100394.84;;;16.63;85.98
63006;BME280;53704;52.532;6.426;2022-10-01T12:46:42;100402.47;;;16.34;81.39
63006;BME280;53704;52.532;6.426;2022-10-01T12:51:41;100398.78;;;16.74;81.46
63006;BME280;53704;52.532;6.426;2022-10-01T12:54:18;100399.88;;;16.59;79.09
63006;BME280;53704;52.532;6.426;2022-10-01T12:56:59;100420.75;;;16.72;80.21
63006;BME280;53704;52.532;6.426;2022-10-01T12:59:32;100421.66;;;16.46;82.16
63006;BME280;53704;52.532;6.426;2022-10-01T13:07:58;100473.66;;;15.01;86.12
63006;BME280;53704;52.532;6.426;2022-10-01T13:13:25;100466.00;;;14.70;84.33
63006;BME280;53704;52.532;6.426;2022-10-01T13:16:10;100476.63;;;14.43;86.49
63006;BME280;53704;52.532;6.426;2022-10-01T13:24:37;100505.66;;;15.19;88.03
63006;BME280;53704;52.532;6.426;2022-10-01T13:29:56;100504.84;;;15.25;84.50
63006;BME280;53704;52.532;6.426;2022-10-01T13:32:28;100506.13;;;14.88;84.74
63006;BME280;53704;52.532;6.426;2022-10-01T13:34:56;100518.75;;;14.45;85.78
63006;BME280;53704;52.532;6.426;2022-10-01T13:37:37;100518.47;;;14.40;86.10
63006;BME280;53704;52.532;6.426;2022-10-01T13:40:20;100519.78;;;14.44;86.34
63006;BME280;53704;52.532;6.426;2022-10-01T13:42:47;100516.56;;;14.91;83.90
63006;BME280;53704;52.532;6.426;2022-10-01T13:45:25;100524.38;;;14.72;84.37
63006;BME280;53704;52.532;6.426;2022-10-01T13:48:03;100519.56;;;14.46;82.25
63006;BME280;53704;52.532;6.426;2022-10-01T13:50:29;100531.47;;;14.23;83.77
63006;BME280;53704;52.532;6.426;2022-10-01T13:53:06;100530.44;;;14.53;84.22
63006;BME280;53704;52.532;6.426;2022-10-01T13:55:32;100526.19;;;14.65;83.39
63006;BME280;53704;52.532;6.426;2022-10-01T13:58:06;100533.78;;;14.55;86.20
63006;BME280;53704;52.532;6.426;2022-10-01T14:00:54;100537.03;;;14.65;87.44
63006;BME280;53704;52.532;6.426;2022-10-01T14:06:23;100539.31;;;15.38;83.86
63006;BME280;53704;52.532;6.426;2022-10-01T14:09:02;100545.41;;;15.05;85.43
63006;BME280;53704;52.532;6.426;2022-10-01T14:11:31;100561.75;;;14.83;87.21
63006;BME280;53704;52.532;6.426;2022-10-01T14:14:24;100568.81;;;14.28;85.53
63006;BME280;53704;52.532;6.426;2022-10-01T14:17:13;100583.84;;;13.72;88.23
63006;BME280;53704;52.532;6.426;2022-10-01T14:19:48;100571.56;;;13.91;89.55
63006;BME280;53704;52.532;6.426;2022-10-01T14:22:23;100565.00;;;13.64;88.80
63006;BME280;53704;52.532;6.426;2022-10-01T14:30:14;100578.53;;;13.79;89.29
63006;BME280;53704;52.532;6.426;2022-10-01T14:35:37;100598.91;;;13.60;90.25
63006;BME280;53704;52.532;6.426;2022-10-01T14:38:16;100609.63;;;13.53;92.79
63006;BME280;53704;52.532;6.426;2022-10-01T14:40:45;100605.66;;;13.86;90.94
63006;BME280;53704;52.532;6.426;2022-10-01T14:43:18;100609.50;;;13.77;91.39
63006;BME280;53704;52.532;6.426;2022-10-01T14:45:54;100615.72;;;13.92;91.96